sensor_id;sensor_type;location;lat;lon;timestamp;temperature;humidity
28773;DHT22;15925;51.222;5.678;2023-12-20T00:01:05;7.80;99.90
28773;DHT22;15925;51.222;5.678;2023-12-20T00:03:31;7.80;99.90
28773;DHT22;15925;51.222;5.678;2023-12-20T00:05:57;7.80;99.90
28773;DHT22;15925;51.222;5.678;2023-12-20T00:08:23;7.70;99.90
28773;DHT22;15925;51.222;5.678;2023-12-20T00:10:49;7.60;99.90
28773;DHT22;15925;51.222;5.678;2023-12-20T00:13:14;7.60;99.90
28773;DHT22;15925;51.222;5.678;2023-12-20T00:15:40;7.50;99.90
28773;DHT22;15925;51.222;5.678;2023-12-20T00:18:07;7.50;99.90
28773;DHT22;15925;51.222;5.678;2023-12-20T00:20:33;7.50;99.90
28773;DHT22;15925;51.222;5.678;2023-12-20T00:22:58;7.40;99.90
28773;DHT22;15925;51.222;5.678;2023-12-20T00:25:24;7.30;99.90
28773;DHT22;15925;51.222;5.678;2023-12-20T00:27:50;7.30;99.90
28773;DHT22;15925;51.222;5.678;2023-12-20T00:30:16;7.30;99.90
28773;DHT22;15925;51.222;5.678;2023-12-20T00:32:42;7.10;99.90
28773;DHT22;15925;51.222;5.678;2023-12-20T00:35:15;7.10;99.90
28773;DHT22;15925;51.222;5.678;2023-12-20T00:37:41;7.00;99.90
28773;DHT22;15925;51.222;5.678;2023-12-20T00:40:07;6.90;99.90
28773;DHT22;15925;51.222;5.678;2023-12-20T00:42:33;6.90;99.90
28773;DHT22;15925;51.222;5.678;2023-12-20T00:44:59;6.90;99.90
28773;DHT22;15925;51.222;5.678;2023-12-20T00:47:25;6.90;99.90
28773;DHT22;15925;51.222;5.678;2023-12-20T00:49:51;6.90;99.90
28773;DHT22;15925;51.222;5.678;2023-12-20T00:52:17;6.80;99.90
28773;DHT22;15925;51.222;5.678;2023-12-20T00:54:43;6.80;99.90
28773;DHT22;15925;51.222;5.678;2023-12-20T00:57:09;6.80;99.90
28773;DHT22;15925;51.222;5.678;2023-12-20T00:59:35;6.80;99.90
28773;DHT22;15925;51.222;5.678;2023-12-20T01:02:01;6.80;99.90
28773;DHT22;15925;51.222;5.678;2023-12-20T01:04:27;6.70;99.90
28773;DHT22;15925;51.222;5.678;2023-12-20T01:06:53;6.70;99.90
28773;DHT22;15925;51.222;5.678;2023-12-20T01:09:19;6.70;99.90
28773;DHT22;15925;51.222;5.678;2023-12-20T01:11:45;6.60;99.90
28773;DHT22;15925;51.222;5.678;2023-12-20T01:14:12;6.60;99.90
28773;DHT22;15925;51.222;5.678;2023-12-20T01:16:38;6.60;99.90
28773;DHT22;15925;51.222;5.678;2023-12-20T01:19:03;6.60;99.90
28773;DHT22;15925;51.222;5.678;2023-12-20T01:21:29;6.70;99.90
28773;DHT22;15925;51.222;5.678;2023-12-20T01:23:55;6.70;99.90
28773;DHT22;15925;51.222;5.678;2023-12-20T01:26:21;6.50;99.90
28773;DHT22;15925;51.222;5.678;2023-12-20T01:28:47;6.60;99.90
28773;DHT22;15925;51.222;5.678;2023-12-20T01:31:13;6.50;99.90
28773;DHT22;15925;51.222;5.678;2023-12-20T01:33:38;6.50;99.90
28773;DHT22;15925;51.222;5.678;2023-12-20T01:36:04;6.40;99.90
28773;DHT22;15925;51.222;5.678;2023-12-20T01:38:30;6.40;99.90
28773;DHT22;15925;51.222;5.678;2023-12-20T01:40:56;6.30;99.90
28773;DHT22;15925;51.222;5.678;2023-12-20T01:43:22;6.30;99.90
28773;DHT22;15925;51.222;5.678;2023-12-20T01:45:47;6.30;99.90
28773;DHT22;15925;51.222;5.678;2023-12-20T01:48:14;6.30;99.90
28773;DHT22;15925;51.222;5.678;2023-12-20T01:50:41;6.20;99.90
28773;DHT22;15925;51.222;5.678;2023-12-20T01:53:09;6.30;99.90
28773;DHT22;15925;51.222;5.678;2023-12-20T01:55:39;6.40;99.90
28773;DHT22;15925;51.222;5.678;2023-12-20T01:58:06;6.30;99.90
28773;DHT22;15925;51.222;5.678;2023-12-20T02:00:33;6.30;99.90
28773;DHT22;15925;51.222;5.678;2023-12-20T02:03:02;6.30;99.90
28773;DHT22;15925;51.222;5.678;2023-12-20T02:05:30;6.30;99.90
28773;DHT22;15925;51.222;5.678;2023-12-20T02:07:55;6.20;99.90
28773;DHT22;15925;51.222;5.678;2023-12-20T02:10:21;6.30;99.90
28773;DHT22;15925;51.222;5.678;2023-12-20T02:12:47;6.30;99.90
28773;DHT22;15925;51.222;5.678;2023-12-20T02:15:13;6.20;99.90
28773;DHT22;15925;51.222;5.678;2023-12-20T02:17:39;6.10;99.90
28773;DHT22;15925;51.222;5.678;2023-12-20T02:20:06;6.10;99.90
28773;DHT22;15925;51.222;5.678;2023-12-20T02:22:32;6.10;99.90
28773;DHT22;15925;51.222;5.678;2023-12-20T02:24:57;6.20;99.90
28773;DHT22;15925;51.222;5.678;2023-12-20T02:27:23;6.10;99.90
28773;DHT22;15925;51.222;5.678;2023-12-20T02:29:50;6.20;99.90
28773;DHT22;15925;51.222;5.678;2023-12-20T02:32:19;6.30;99.90
28773;DHT22;15925;51.222;5.678;2023-12-20T02:34:47;6.20;99.90
28773;DHT22;15925;51.222;5.678;2023-12-20T02:37:13;6.20;99.90
28773;DHT22;15925;51.222;5.678;2023-12-20T02:39:39;6.10;99.90
28773;DHT22;15925;51.222;5.678;2023-12-20T02:42:05;6.20;99.90
28773;DHT22;15925;51.222;5.678;2023-12-20T02:44:31;6.20;99.90
28773;DHT22;15925;51.222;5.678;2023-12-20T02:46:57;6.20;99.90
28773;DHT22;15925;51.222;5.678;2023-12-20T02:49:23;6.10;99.90
28773;DHT22;15925;51.222;5.678;2023-12-20T02:51:48;6.20;99.90
28773;DHT22;15925;51.222;5.678;2023-12-20T02:54:14;6.20;99.90
28773;DHT22;15925;51.222;5.678;2023-12-20T02:56:40;6.20;99.90
28773;DHT22;15925;51.222;5.678;2023-12-20T02:59:06;6.20;99.90
28773;DHT22;15925;51.222;5.678;2023-12-20T03:01:34;6.20;99.90
28773;DHT22;15925;51.222;5.678;2023-12-20T03:04:00;6.20;99.90
28773;DHT22;15925;51.222;5.678;2023-12-20T03:06:26;6.20;99.90
28773;DHT22;15925;51.222;5.678;2023-12-20T03:08:52;6.20;99.90
28773;DHT22;15925;51.222;5.678;2023-12-20T03:11:18;6.20;99.90
28773;DHT22;15925;51.222;5.678;2023-12-20T03:13:44;6.10;99.90
28773;DHT22;15925;51.222;5.678;2023-12-20T03:16:13;6.10;99.90
28773;DHT22;15925;51.222;5.678;2023-12-20T03:18:39;6.10;99.90
28773;DHT22;15925;51.222;5.678;2023-12-20T03:21:05;6.10;99.90
28773;DHT22;15925;51.222;5.678;2023-12-20T03:23:31;6.00;99.90
28773;DHT22;15925;51.222;5.678;2023-12-20T03:26:02;6.10;99.90
28773;DHT22;15925;51.222;5.678;2023-12-20T03:28:28;6.10;99.90
28773;DHT22;15925;51.222;5.678;2023-12-20T03:30:53;6.10;99.90
28773;DHT22;15925;51.222;5.678;2023-12-20T03:33:19;6.00;99.90
28773;DHT22;15925;51.222;5.678;2023-12-20T03:35:45;6.10;99.90
28773;DHT22;15925;51.222;5.678;2023-12-20T03:38:11;6.10;99.90
28773;DHT22;15925;51.222;5.678;2023-12-20T03:40:37;6.00;99.90
28773;DHT22;15925;51.222;5.678;2023-12-20T03:43:03;6.10;99.90
28773;DHT22;15925;51.222;5.678;2023-12-20T03:45:28;6.00;99.90
28773;DHT22;15925;51.222;5.678;2023-12-20T03:47:54;6.10;99.90
28773;DHT22;15925;51.222;5.678;2023-12-20T03:50:25;6.10;99.90
28773;DHT22;15925;51.222;5.678;2023-12-20T03:52:51;6.00;99.90
28773;DHT22;15925;51.222;5.678;2023-12-20T03:55:17;6.00;99.90
28773;DHT22;15925;51.222;5.678;2023-12-20T03:57:43;6.00;99.90
28773;DHT22;15925;51.222;5.678;2023-12-20T04:00:09;6.00;99.90
28773;DHT22;15925;51.222;5.678;2023-12-20T04:02:42;6.10;99.90
28773;DHT22;15925;51.222;5.678;2023-12-20T04:05:09;6.00;99.90
28773;DHT22;15925;51.222;5.678;2023-12-20T04:07:37;6.10;99.90
28773;DHT22;15925;51.222;5.678;2023-12-20T04:10:04;6.10;99.90
28773;DHT22;15925;51.222;5.678;2023-12-20T04:12:30;6.00;99.90
28773;DHT22;15925;51.222;5.678;2023-12-20T04:14:56;6.00;99.90
28773;DHT22;15925;51.222;5.678;2023-12-20T04:17:22;6.10;99.90
28773;DHT22;15925;51.222;5.678;2023-12-20T04:19:51;6.10;99.90
28773;DHT22;15925;51.222;5.678;2023-12-20T04:22:18;6.10;99.90
28773;DHT22;15925;51.222;5.678;2023-12-20T04:24:44;6.10;99.90
28773;DHT22;15925;51.222;5.678;2023-12-20T04:27:10;6.10;99.90
28773;DHT22;15925;51.222;5.678;2023-12-20T04:29:35;6.10;99.90
28773;DHT22;15925;51.222;5.678;2023-12-20T04:32:01;6.10;99.90
28773;DHT22;15925;51.222;5.678;2023-12-20T04:34:27;6.10;99.90
28773;DHT22;15925;51.222;5.678;2023-12-20T04:36:53;6.10;99.90
28773;DHT22;15925;51.222;5.678;2023-12-20T04:39:19;6.10;99.90
28773;DHT22;15925;51.222;5.678;2023-12-20T04:41:45;6.10;99.90
28773;DHT22;15925;51.222;5.678;2023-12-20T04:44:13;6.20;99.90
28773;DHT22;15925;51.222;5.678;2023-12-20T04:46:39;6.10;99.90
28773;DHT22;15925;51.222;5.678;2023-12-20T04:49:05;6.20;99.90
28773;DHT22;15925;51.222;5.678;2023-12-20T04:51:33;6.20;99.90
28773;DHT22;15925;51.222;5.678;2023-12-20T04:53:59;6.20;99.90
28773;DHT22;15925;51.222;5.678;2023-12-20T04:56:25;6.20;99.90
28773;DHT22;15925;51.222;5.678;2023-12-20T04:58:51;6.20;99.90
28773;DHT22;15925;51.222;5.678;2023-12-20T05:01:17;6.20;99.90
28773;DHT22;15925;51.222;5.678;2023-12-20T05:03:42;6.20;99.90
28773;DHT22;15925;51.222;5.678;2023-12-20T05:06:09;6.20;99.90
28773;DHT22;15925;51.222;5.678;2023-12-20T05:08:35;6.20;99.90
28773;DHT22;15925;51.222;5.678;2023-12-20T05:11:01;6.20;99.90
28773;DHT22;15925;51.222;5.678;2023-12-20T05:13:27;6.30;99.90
28773;DHT22;15925;51.222;5.678;2023-12-20T05:15:53;6.30;99.90
28773;DHT22;15925;51.222;5.678;2023-12-20T05:18:20;6.30;99.90
28773;DHT22;15925;51.222;5.678;2023-12-20T05:20:45;6.30;99.90
28773;DHT22;15925;51.222;5.678;2023-12-20T05:23:11;6.30;99.90
28773;DHT22;15925;51.222;5.678;2023-12-20T05:25:39;6.30;99.90
28773;DHT22;15925;51.222;5.678;2023-12-20T05:28:05;6.30;99.90
28773;DHT22;15925;51.222;5.678;2023-12-20T05:30:31;6.40;99.90
28773;DHT22;15925;51.222;5.678;2023-12-20T05:32:56;6.40;99.90
28773;DHT22;15925;51.222;5.678;2023-12-20T05:35:22;6.40;99.90
28773;DHT22;15925;51.222;5.678;2023-12-20T05:37:49;6.40;99.90
28773;DHT22;15925;51.222;5.678;2023-12-20T05:40:15;6.40;99.90
28773;DHT22;15925;51.222;5.678;2023-12-20T05:42:41;6.40;99.90
28773;DHT22;15925;51.222;5.678;2023-12-20T05:45:07;6.40;99.90
28773;DHT22;15925;51.222;5.678;2023-12-20T05:47:32;6.40;99.90
28773;DHT22;15925;51.222;5.678;2023-12-20T05:49:58;6.40;99.90
28773;DHT22;15925;51.222;5.678;2023-12-20T05:52:24;6.40;99.90
28773;DHT22;15925;51.222;5.678;2023-12-20T05:54:50;6.40;99.90
28773;DHT22;15925;51.222;5.678;2023-12-20T05:57:16;6.40;99.90
28773;DHT22;15925;51.222;5.678;2023-12-20T05:59:42;6.40;99.90
28773;DHT22;15925;51.222;5.678;2023-12-20T06:02:07;6.40;99.90
28773;DHT22;15925;51.222;5.678;2023-12-20T06:04:33;6.40;99.90
28773;DHT22;15925;51.222;5.678;2023-12-20T06:06:59;6.50;99.90
28773;DHT22;15925;51.222;5.678;2023-12-20T06:09:27;6.40;99.90
28773;DHT22;15925;51.222;5.678;2023-12-20T06:11:53;6.40;99.90
28773;DHT22;15925;51.222;5.678;2023-12-20T06:14:19;6.30;99.90
28773;DHT22;15925;51.222;5.678;2023-12-20T06:16:45;6.30;99.90
28773;DHT22;15925;51.222;5.678;2023-12-20T06:19:11;6.30;99.90
28773;DHT22;15925;51.222;5.678;2023-12-20T06:21:37;6.30;99.90
28773;DHT22;15925;51.222;5.678;2023-12-20T06:24:03;6.20;99.90
28773;DHT22;15925;51.222;5.678;2023-12-20T06:26:28;6.10;99.90
28773;DHT22;15925;51.222;5.678;2023-12-20T06:28:54;6.10;99.90
28773;DHT22;15925;51.222;5.678;2023-12-20T06:31:21;6.00;99.90
28773;DHT22;15925;51.222;5.678;2023-12-20T06:33:46;6.00;99.90
28773;DHT22;15925;51.222;5.678;2023-12-20T06:36:13;6.00;99.90
28773;DHT22;15925;51.222;5.678;2023-12-20T06:38:39;6.00;99.90
28773;DHT22;15925;51.222;5.678;2023-12-20T06:41:05;6.00;99.90
28773;DHT22;15925;51.222;5.678;2023-12-20T06:43:31;6.00;99.90
28773;DHT22;15925;51.222;5.678;2023-12-20T06:46:00;5.90;99.90
28773;DHT22;15925;51.222;5.678;2023-12-20T06:48:26;6.00;99.90
28773;DHT22;15925;51.222;5.678;2023-12-20T06:50:52;5.90;99.90
28773;DHT22;15925;51.222;5.678;2023-12-20T06:53:18;5.90;99.90
28773;DHT22;15925;51.222;5.678;2023-12-20T06:55:44;5.90;99.90
28773;DHT22;15925;51.222;5.678;2023-12-20T06:58:09;5.90;99.90
28773;DHT22;15925;51.222;5.678;2023-12-20T07:00:35;5.80;99.90
28773;DHT22;15925;51.222;5.678;2023-12-20T07:03:01;5.90;99.90
28773;DHT22;15925;51.222;5.678;2023-12-20T07:05:27;5.80;99.90
28773;DHT22;15925;51.222;5.678;2023-12-20T07:07:53;5.80;99.90
28773;DHT22;15925;51.222;5.678;2023-12-20T07:10:20;5.90;99.90
28773;DHT22;15925;51.222;5.678;2023-12-20T07:12:46;5.80;99.90
28773;DHT22;15925;51.222;5.678;2023-12-20T07:15:11;5.80;99.90
28773;DHT22;15925;51.222;5.678;2023-12-20T07:17:37;5.70;99.90
28773;DHT22;15925;51.222;5.678;2023-12-20T07:20:03;5.70;99.90
28773;DHT22;15925;51.222;5.678;2023-12-20T07:22:30;5.70;99.90
28773;DHT22;15925;51.222;5.678;2023-12-20T07:24:59;5.60;99.90
28773;DHT22;15925;51.222;5.678;2023-12-20T07:27:26;5.70;99.90
28773;DHT22;15925;51.222;5.678;2023-12-20T07:29:51;5.70;99.90
28773;DHT22;15925;51.222;5.678;2023-12-20T07:32:17;5.70;99.90
28773;DHT22;15925;51.222;5.678;2023-12-20T07:34:43;5.70;99.90
28773;DHT22;15925;51.222;5.678;2023-12-20T07:37:09;5.70;99.90
28773;DHT22;15925;51.222;5.678;2023-12-20T07:39:38;5.70;99.90
28773;DHT22;15925;51.222;5.678;2023-12-20T07:42:05;5.70;99.90
28773;DHT22;15925;51.222;5.678;2023-12-20T07:44:31;5.70;99.90
28773;DHT22;15925;51.222;5.678;2023-12-20T07:46:57;5.70;99.90
28773;DHT22;15925;51.222;5.678;2023-12-20T07:49:23;5.70;99.90
28773;DHT22;15925;51.222;5.678;2023-12-20T07:51:49;5.70;99.90
28773;DHT22;15925;51.222;5.678;2023-12-20T07:54:15;5.70;99.90
28773;DHT22;15925;51.222;5.678;2023-12-20T07:56:41;5.70;99.90
28773;DHT22;15925;51.222;5.678;2023-12-20T07:59:07;5.70;99.90
28773;DHT22;15925;51.222;5.678;2023-12-20T08:01:33;5.70;99.90
28773;DHT22;15925;51.222;5.678;2023-12-20T08:03:59;5.80;99.90
28773;DHT22;15925;51.222;5.678;2023-12-20T08:06:24;5.80;99.90
28773;DHT22;15925;51.222;5.678;2023-12-20T08:08:50;5.80;99.90
28773;DHT22;15925;51.222;5.678;2023-12-20T08:11:16;5.90;99.90
28773;DHT22;15925;51.222;5.678;2023-12-20T08:13:43;5.90;99.90
28773;DHT22;15925;51.222;5.678;2023-12-20T08:16:08;6.00;99.90
28773;DHT22;15925;51.222;5.678;2023-12-20T08:18:34;6.00;99.90
28773;DHT22;15925;51.222;5.678;2023-12-20T08:21:00;6.00;99.90
28773;DHT22;15925;51.222;5.678;2023-12-20T08:23:27;6.10;99.90
28773;DHT22;15925;51.222;5.678;2023-12-20T08:25:52;6.20;99.90
28773;DHT22;15925;51.222;5.678;2023-12-20T08:28:18;6.20;99.90
28773;DHT22;15925;51.222;5.678;2023-12-20T08:30:44;6.20;99.90
28773;DHT22;15925;51.222;5.678;2023-12-20T08:33:10;6.20;99.90
28773;DHT22;15925;51.222;5.678;2023-12-20T08:35:41;6.30;99.90
28773;DHT22;15925;51.222;5.678;2023-12-20T08:38:06;6.30;99.90
28773;DHT22;15925;51.222;5.678;2023-12-20T08:40:32;6.30;99.90
28773;DHT22;15925;51.222;5.678;2023-12-20T08:42:58;6.30;99.90
28773;DHT22;15925;51.222;5.678;2023-12-20T08:45:24;6.30;99.90
28773;DHT22;15925;51.222;5.678;2023-12-20T08:47:50;6.40;99.90
28773;DHT22;15925;51.222;5.678;2023-12-20T08:50:16;6.30;99.90
28773;DHT22;15925;51.222;5.678;2023-12-20T08:52:41;6.30;99.90
28773;DHT22;15925;51.222;5.678;2023-12-20T08:55:08;6.30;99.90
28773;DHT22;15925;51.222;5.678;2023-12-20T08:57:36;6.30;99.90
28773;DHT22;15925;51.222;5.678;2023-12-20T09:00:02;6.30;99.90
28773;DHT22;15925;51.222;5.678;2023-12-20T09:02:28;6.40;99.90
28773;DHT22;15925;51.222;5.678;2023-12-20T09:04:54;6.40;99.90
28773;DHT22;15925;51.222;5.678;2023-12-20T09:07:27;6.40;99.90
28773;DHT22;15925;51.222;5.678;2023-12-20T09:09:56;6.50;99.90
28773;DHT22;15925;51.222;5.678;2023-12-20T09:12:22;6.50;99.90
28773;DHT22;15925;51.222;5.678;2023-12-20T09:14:49;6.50;99.90
28773;DHT22;15925;51.222;5.678;2023-12-20T09:17:15;6.50;99.90
28773;DHT22;15925;51.222;5.678;2023-12-20T09:19:42;6.60;99.90
28773;DHT22;15925;51.222;5.678;2023-12-20T09:22:09;6.60;99.90
28773;DHT22;15925;51.222;5.678;2023-12-20T09:24:35;6.60;99.90
28773;DHT22;15925;51.222;5.678;2023-12-20T09:27:01;6.60;99.90
28773;DHT22;15925;51.222;5.678;2023-12-20T09:29:28;6.70;99.90
28773;DHT22;15925;51.222;5.678;2023-12-20T09:31:54;6.70;99.90
28773;DHT22;15925;51.222;5.678;2023-12-20T09:34:20;6.70;99.90
28773;DHT22;15925;51.222;5.678;2023-12-20T09:36:46;6.80;99.90
28773;DHT22;15925;51.222;5.678;2023-12-20T09:39:17;6.80;99.90
28773;DHT22;15925;51.222;5.678;2023-12-20T09:44:24;6.70;99.90
28773;DHT22;15925;51.222;5.678;2023-12-20T09:46:50;6.80;99.90
28773;DHT22;15925;51.222;5.678;2023-12-20T09:49:18;6.80;99.90
28773;DHT22;15925;51.222;5.678;2023-12-20T09:51:46;6.80;99.90
28773;DHT22;15925;51.222;5.678;2023-12-20T09:54:18;6.90;99.90
28773;DHT22;15925;51.222;5.678;2023-12-20T09:56:45;6.90;99.90
28773;DHT22;15925;51.222;5.678;2023-12-20T09:59:11;7.00;99.90
28773;DHT22;15925;51.222;5.678;2023-12-20T10:01:38;7.00;99.90
28773;DHT22;15925;51.222;5.678;2023-12-20T10:04:06;7.00;99.90
28773;DHT22;15925;51.222;5.678;2023-12-20T10:06:41;7.00;99.90
28773;DHT22;15925;51.222;5.678;2023-12-20T10:09:07;7.00;99.90
28773;DHT22;15925;51.222;5.678;2023-12-20T10:11:35;7.10;99.90
28773;DHT22;15925;51.222;5.678;2023-12-20T10:14:03;7.10;99.90
28773;DHT22;15925;51.222;5.678;2023-12-20T10:16:29;7.20;99.90
28773;DHT22;15925;51.222;5.678;2023-12-20T10:18:55;7.10;99.90
28773;DHT22;15925;51.222;5.678;2023-12-20T10:21:22;7.20;99.90
28773;DHT22;15925;51.222;5.678;2023-12-20T10:23:49;7.20;99.90
28773;DHT22;15925;51.222;5.678;2023-12-20T10:26:26;7.20;99.90
28773;DHT22;15925;51.222;5.678;2023-12-20T10:28:56;7.20;99.90
28773;DHT22;15925;51.222;5.678;2023-12-20T10:31:31;7.20;99.90
28773;DHT22;15925;51.222;5.678;2023-12-20T10:33:58;7.20;99.90
28773;DHT22;15925;51.222;5.678;2023-12-20T10:36:25;7.30;99.90
28773;DHT22;15925;51.222;5.678;2023-12-20T10:38:52;7.20;99.90
28773;DHT22;15925;51.222;5.678;2023-12-20T10:41:20;7.30;99.90
28773;DHT22;15925;51.222;5.678;2023-12-20T10:43:47;7.20;99.90
28773;DHT22;15925;51.222;5.678;2023-12-20T10:46:13;7.20;99.90
28773;DHT22;15925;51.222;5.678;2023-12-20T10:48:39;7.30;99.90
28773;DHT22;15925;51.222;5.678;2023-12-20T10:51:06;7.30;99.90
28773;DHT22;15925;51.222;5.678;2023-12-20T10:53:32;7.30;99.90
28773;DHT22;15925;51.222;5.678;2023-12-20T10:56:00;7.30;99.90
28773;DHT22;15925;51.222;5.678;2023-12-20T10:58:29;7.30;99.90
28773;DHT22;15925;51.222;5.678;2023-12-20T11:01:00;7.30;99.90
28773;DHT22;15925;51.222;5.678;2023-12-20T11:03:32;7.30;99.90
28773;DHT22;15925;51.222;5.678;2023-12-20T11:06:07;7.30;99.90
28773;DHT22;15925;51.222;5.678;2023-12-20T11:08:43;7.30;99.90
28773;DHT22;15925;51.222;5.678;2023-12-20T11:14:05;7.30;99.90
28773;DHT22;15925;51.222;5.678;2023-12-20T11:16:39;7.40;99.90
28773;DHT22;15925;51.222;5.678;2023-12-20T11:19:06;7.40;99.90
28773;DHT22;15925;51.222;5.678;2023-12-20T11:21:33;7.40;99.90
28773;DHT22;15925;51.222;5.678;2023-12-20T11:23:59;7.40;99.90
28773;DHT22;15925;51.222;5.678;2023-12-20T11:26:29;7.40;99.90
28773;DHT22;15925;51.222;5.678;2023-12-20T11:31:59;7.40;99.90
28773;DHT22;15925;51.222;5.678;2023-12-20T11:34:27;7.40;99.90
28773;DHT22;15925;51.222;5.678;2023-12-20T11:36:58;7.40;99.90
28773;DHT22;15925;51.222;5.678;2023-12-20T11:39:26;7.40;99.90
28773;DHT22;15925;51.222;5.678;2023-12-20T11:41:54;7.40;99.90
28773;DHT22;15925;51.222;5.678;2023-12-20T11:44:21;7.40;99.90
28773;DHT22;15925;51.222;5.678;2023-12-20T11:46:47;7.40;99.90
28773;DHT22;15925;51.222;5.678;2023-12-20T11:49:13;7.50;99.90
28773;DHT22;15925;51.222;5.678;2023-12-20T11:51:42;7.50;99.90
28773;DHT22;15925;51.222;5.678;2023-12-20T11:54:09;7.50;99.90
28773;DHT22;15925;51.222;5.678;2023-12-20T11:56:36;7.50;99.90
28773;DHT22;15925;51.222;5.678;2023-12-20T11:59:02;7.50;99.90
28773;DHT22;15925;51.222;5.678;2023-12-20T12:01:28;7.50;99.90
28773;DHT22;15925;51.222;5.678;2023-12-20T12:04:04;7.50;99.90
28773;DHT22;15925;51.222;5.678;2023-12-20T12:06:30;7.60;99.90
28773;DHT22;15925;51.222;5.678;2023-12-20T12:08:56;7.60;99.90
28773;DHT22;15925;51.222;5.678;2023-12-20T12:11:22;7.70;99.90
28773;DHT22;15925;51.222;5.678;2023-12-20T12:13:49;7.60;99.90
28773;DHT22;15925;51.222;5.678;2023-12-20T12:16:18;7.60;99.90
28773;DHT22;15925;51.222;5.678;2023-12-20T12:18:57;7.60;99.90
28773;DHT22;15925;51.222;5.678;2023-12-20T12:21:24;7.60;99.90
28773;DHT22;15925;51.222;5.678;2023-12-20T12:23:50;7.60;99.90
28773;DHT22;15925;51.222;5.678;2023-12-20T12:26:16;7.60;99.90
28773;DHT22;15925;51.222;5.678;2023-12-20T12:28:42;7.60;99.90
28773;DHT22;15925;51.222;5.678;2023-12-20T12:31:12;7.70;99.90
28773;DHT22;15925;51.222;5.678;2023-12-20T12:33:38;7.70;99.90
28773;DHT22;15925;51.222;5.678;2023-12-20T12:36:04;7.60;99.90
28773;DHT22;15925;51.222;5.678;2023-12-20T12:38:33;7.70;99.90
28773;DHT22;15925;51.222;5.678;2023-12-20T12:41:00;7.70;99.90
28773;DHT22;15925;51.222;5.678;2023-12-20T12:43:26;7.60;99.90
28773;DHT22;15925;51.222;5.678;2023-12-20T12:45:53;7.60;99.90
28773;DHT22;15925;51.222;5.678;2023-12-20T12:48:19;7.70;99.90
28773;DHT22;15925;51.222;5.678;2023-12-20T12:50:48;7.70;99.90
28773;DHT22;15925;51.222;5.678;2023-12-20T12:53:14;7.70;99.90
28773;DHT22;15925;51.222;5.678;2023-12-20T12:55:39;7.70;99.90
28773;DHT22;15925;51.222;5.678;2023-12-20T12:58:05;7.70;99.90
28773;DHT22;15925;51.222;5.678;2023-12-20T13:00:31;7.70;99.90
28773;DHT22;15925;51.222;5.678;2023-12-20T13:02:57;7.80;99.90
28773;DHT22;15925;51.222;5.678;2023-12-20T13:05:22;7.80;99.90
28773;DHT22;15925;51.222;5.678;2023-12-20T13:07:55;7.80;99.90
28773;DHT22;15925;51.222;5.678;2023-12-20T13:10:24;7.80;99.90
28773;DHT22;15925;51.222;5.678;2023-12-20T13:12:49;7.80;99.90
28773;DHT22;15925;51.222;5.678;2023-12-20T13:15:15;7.90;99.90
28773;DHT22;15925;51.222;5.678;2023-12-20T13:17:41;7.90;99.90
28773;DHT22;15925;51.222;5.678;2023-12-20T13:20:07;7.90;99.90
28773;DHT22;15925;51.222;5.678;2023-12-20T13:22:33;7.90;99.90
28773;DHT22;15925;51.222;5.678;2023-12-20T13:24:58;7.90;99.90
28773;DHT22;15925;51.222;5.678;2023-12-20T13:27:24;7.90;99.90
28773;DHT22;15925;51.222;5.678;2023-12-20T13:29:50;7.90;99.90
28773;DHT22;15925;51.222;5.678;2023-12-20T13:32:16;7.90;99.90
28773;DHT22;15925;51.222;5.678;2023-12-20T13:34:41;7.90;99.90
28773;DHT22;15925;51.222;5.678;2023-12-20T13:37:07;7.90;99.90
28773;DHT22;15925;51.222;5.678;2023-12-20T13:39:33;7.90;99.90
28773;DHT22;15925;51.222;5.678;2023-12-20T13:41:59;7.90;99.90
28773;DHT22;15925;51.222;5.678;2023-12-20T13:44:25;7.90;99.90
28773;DHT22;15925;51.222;5.678;2023-12-20T13:46:51;7.90;99.90
28773;DHT22;15925;51.222;5.678;2023-12-20T13:49:17;7.90;99.90
28773;DHT22;15925;51.222;5.678;2023-12-20T13:51:43;8.00;99.90
28773;DHT22;15925;51.222;5.678;2023-12-20T13:54:08;8.00;99.90
28773;DHT22;15925;51.222;5.678;2023-12-20T13:56:36;7.90;99.90
28773;DHT22;15925;51.222;5.678;2023-12-20T13:59:02;7.90;99.90
28773;DHT22;15925;51.222;5.678;2023-12-20T14:01:27;8.00;99.90
28773;DHT22;15925;51.222;5.678;2023-12-20T14:03:53;8.00;99.90
28773;DHT22;15925;51.222;5.678;2023-12-20T14:06:19;8.00;99.90
28773;DHT22;15925;51.222;5.678;2023-12-20T14:08:45;7.90;99.90
28773;DHT22;15925;51.222;5.678;2023-12-20T14:11:10;7.90;99.90
28773;DHT22;15925;51.222;5.678;2023-12-20T14:13:36;7.90;99.90
28773;DHT22;15925;51.222;5.678;2023-12-20T14:16:02;8.00;99.90
28773;DHT22;15925;51.222;5.678;2023-12-20T14:18:29;8.00;99.90
28773;DHT22;15925;51.222;5.678;2023-12-20T14:20:56;8.00;99.90
28773;DHT22;15925;51.222;5.678;2023-12-20T14:23:21;8.00;99.90
28773;DHT22;15925;51.222;5.678;2023-12-20T14:25:48;8.00;99.90
28773;DHT22;15925;51.222;5.678;2023-12-20T14:28:15;8.00;99.90
28773;DHT22;15925;51.222;5.678;2023-12-20T14:30:40;8.00;99.90
28773;DHT22;15925;51.222;5.678;2023-12-20T14:33:06;8.00;99.90
28773;DHT22;15925;51.222;5.678;2023-12-20T14:35:32;8.00;99.90
28773;DHT22;15925;51.222;5.678;2023-12-20T14:37:58;8.00;99.90
28773;DHT22;15925;51.222;5.678;2023-12-20T14:40:24;8.00;99.90
28773;DHT22;15925;51.222;5.678;2023-12-20T14:42:50;8.00;99.90
28773;DHT22;15925;51.222;5.678;2023-12-20T14:45:16;8.00;99.90
28773;DHT22;15925;51.222;5.678;2023-12-20T14:47:42;8.00;99.90
28773;DHT22;15925;51.222;5.678;2023-12-20T14:50:08;8.00;99.90
28773;DHT22;15925;51.222;5.678;2023-12-20T14:52:34;8.00;99.90
28773;DHT22;15925;51.222;5.678;2023-12-20T14:55:01;8.10;99.90
28773;DHT22;15925;51.222;5.678;2023-12-20T14:57:28;8.10;99.90
28773;DHT22;15925;51.222;5.678;2023-12-20T14:59:55;8.10;99.90
28773;DHT22;15925;51.222;5.678;2023-12-20T15:02:21;8.10;99.90
28773;DHT22;15925;51.222;5.678;2023-12-20T15:04:46;8.10;99.90
28773;DHT22;15925;51.222;5.678;2023-12-20T15:07:12;8.00;99.90
28773;DHT22;15925;51.222;5.678;2023-12-20T15:09:38;8.10;99.90
28773;DHT22;15925;51.222;5.678;2023-12-20T15:12:04;8.00;99.90
28773;DHT22;15925;51.222;5.678;2023-12-20T15:14:30;8.00;99.90
28773;DHT22;15925;51.222;5.678;2023-12-20T15:16:56;8.00;99.90
28773;DHT22;15925;51.222;5.678;2023-12-20T15:19:22;8.10;99.90
28773;DHT22;15925;51.222;5.678;2023-12-20T15:21:48;8.10;99.90
28773;DHT22;15925;51.222;5.678;2023-12-20T15:24:15;8.10;99.90
28773;DHT22;15925;51.222;5.678;2023-12-20T15:26:43;8.10;99.90
28773;DHT22;15925;51.222;5.678;2023-12-20T15:29:10;8.10;99.90
28773;DHT22;15925;51.222;5.678;2023-12-20T15:31:45;8.10;99.90
28773;DHT22;15925;51.222;5.678;2023-12-20T15:34:11;8.10;99.90
28773;DHT22;15925;51.222;5.678;2023-12-20T15:36:37;8.10;99.90
28773;DHT22;15925;51.222;5.678;2023-12-20T15:39:04;8.20;99.90
28773;DHT22;15925;51.222;5.678;2023-12-20T15:41:30;8.20;99.90
28773;DHT22;15925;51.222;5.678;2023-12-20T15:43:56;8.20;99.90
28773;DHT22;15925;51.222;5.678;2023-12-20T15:46:22;8.20;99.90
28773;DHT22;15925;51.222;5.678;2023-12-20T15:48:48;8.20;99.90